Time;durP1;ratioP1;P1;durP2;ratioP2;P2;SDS_P1;SDS_P2;PMS_P1;PMS_P2;Temp;Humidity;BMP_temperature;BMP_pressure;BME280_temperature;BME280_humidity;BME280_pressure;Samples;Min_cycle;Max_cycle;Signal;HPM_P1;HPM_P2
2022/01/04 00:00:37;;;;;;;23.00;9.68;;;8.80;94.10;;;;;;6201170;22;20019;-78
2022/01/04 00:03:03;;;;;;;19.85;9.25;;;8.80;94.10;;;;;;6202281;22;20095;-78
2022/01/04 00:05:28;;;;;;;20.58;9.18;;;8.80;94.10;;;;;;6232858;22;20027;-78
2022/01/04 00:07:54;;;;;;;16.48;9.70;;;8.80;94.20;;;;;;6186571;22;20022;-77
2022/01/04 00:10:23;;;;;;;19.50;9.25;;;8.90;94.20;;;;;;6209480;22;20016;-78
2022/01/04 00:15:37;;;;;;;19.20;8.98;;;8.90;94.20;;;;;;6250804;22;20542;-78
2022/01/04 00:18:03;;;;;;;18.55;9.25;;;8.90;94.20;;;;;;6200724;22;20077;-77
2022/01/04 00:20:29;;;;;;;22.33;9.75;;;8.90;94.20;;;;;;6200488;22;20019;-78
2022/01/04 00:22:55;;;;;;;16.05;10.35;;;8.90;94.20;;;;;;6175545;22;20430;-78
2022/01/04 00:25:20;;;;;;;17.02;8.05;;;8.90;94.20;;;;;;6225070;22;20026;-80
2022/01/04 00:27:49;;;;;;;15.10;8.55;;;8.90;94.20;;;;;;6224407;22;20019;-79
2022/01/04 00:30:14;;;;;;;25.73;9.18;;;8.90;94.20;;;;;;6199673;22;20105;-78
2022/01/04 00:32:40;;;;;;;25.02;9.05;;;8.90;94.20;;;;;;6176244;22;20058;-78
2022/01/04 00:35:06;;;;;;;21.38;8.88;;;8.90;94.20;;;;;;6199189;22;20334;-79
2022/01/04 00:37:35;;;;;;;16.70;8.60;;;8.90;94.20;;;;;;6174325;22;20016;-78
2022/01/04 00:40:04;;;;;;;15.80;8.60;;;9.00;94.20;;;;;;6200155;22;20012;-78
2022/01/04 00:42:29;;;;;;;18.70;9.63;;;8.90;94.20;;;;;;6175043;22;20094;-78
2022/01/04 00:44:57;;;;;;;18.70;9.13;;;8.90;94.20;;;;;;6200124;22;20051;-78
2022/01/04 00:47:28;;;;;;;18.75;9.35;;;8.90;94.20;;;;;;6225064;22;20396;-78
2022/01/04 00:49:56;;;;;;;19.35;9.02;;;8.90;94.20;;;;;;6177349;22;20015;-78
2022/01/04 00:52:31;;;;;;;20.30;8.98;;;8.80;94.20;;;;;;6199157;22;20023;-79
2022/01/04 00:54:57;;;;;;;17.00;8.00;;;8.90;94.20;;;;;;6201394;22;20027;-78
2022/01/04 00:57:25;;;;;;;18.98;8.80;;;8.90;94.20;;;;;;6174472;22;20023;-78
2022/01/04 00:59:53;;;;;;;24.20;9.48;;;8.90;94.20;;;;;;6249028;22;20066;-79
2022/01/04 01:02:21;;;;;;;24.80;9.95;;;8.90;94.20;;;;;;6200109;22;20020;-79
2022/01/04 01:04:50;;;;;;;18.15;9.25;;;8.90;94.20;;;;;;6224491;22;20015;-78
2022/01/04 01:07:15;;;;;;;22.55;9.95;;;8.90;94.20;;;;;;6198581;22;20323;-78
2022/01/04 01:12:34;;;;;;;31.90;11.70;;;8.90;94.20;;;;;;6197770;22;20020;-76
2022/01/04 01:15:03;;;;;;;26.15;10.15;;;8.90;94.20;;;;;;6199981;22;20510;-77
2022/01/04 01:17:30;;;;;;;26.77;10.75;;;8.90;94.30;;;;;;6198743;22;20031;-77
2022/01/04 01:19:57;;;;;;;23.05;10.07;;;8.90;94.30;;;;;;6174865;22;20043;-78
2022/01/04 01:22:22;;;;;;;19.55;10.57;;;8.90;94.30;;;;;;6199823;22;20023;-79
2022/01/04 01:24:51;;;;;;;22.50;10.73;;;8.90;94.30;;;;;;6174804;22;20015;-77
2022/01/04 01:27:17;;;;;;;24.27;11.20;;;8.90;94.30;;;;;;6199683;22;20400;-79
2022/01/04 01:29:43;;;;;;;19.77;11.35;;;8.90;94.30;;;;;;6198863;22;20012;-77
2022/01/04 01:32:12;;;;;;;20.77;10.73;;;8.90;94.30;;;;;;6198914;22;20065;-77
2022/01/04 01:34:37;;;;;;;24.23;11.07;;;8.90;94.30;;;;;;6224558;22;20019;-77
2022/01/04 01:37:06;;;;;;;30.33;11.50;;;8.90;94.30;;;;;;6199128;22;20095;-78
2022/01/04 01:39:32;;;;;;;17.95;10.55;;;8.90;94.30;;;;;;6224357;22;20020;-77
2022/01/04 01:42:00;;;;;;;19.20;10.98;;;8.90;94.30;;;;;;6199287;22;20094;-78
2022/01/04 01:44:26;;;;;;;24.42;11.43;;;8.90;94.30;;;;;;6174009;22;20020;-78
2022/01/04 01:46:52;;;;;;;25.95;12.23;;;8.90;94.30;;;;;;6199490;22;20338;-77
2022/01/04 01:49:21;;;;;;;24.65;12.57;;;8.90;94.30;;;;;;6223032;22;20011;-79
2022/01/04 01:51:46;;;;;;;24.25;11.48;;;8.90;94.40;;;;;;6174508;22;20446;-77
2022/01/04 01:54:12;;;;;;;26.38;12.18;;;8.90;94.40;;;;;;6198844;22;20022;-77
2022/01/04 01:56:40;;;;;;;25.33;12.25;;;8.90;94.40;;;;;;6173504;22;20072;-78
2022/01/04 01:59:06;;;;;;;25.48;12.50;;;8.80;94.30;;;;;;6198910;22;20015;-77
2022/01/04 02:01:32;;;;;;;22.45;13.40;;;8.90;94.40;;;;;;6198673;22;20020;-77
2022/01/04 02:04:00;;;;;;;26.90;13.65;;;8.90;94.40;;;;;;6223924;22;20016;-77
2022/01/04 02:06:29;;;;;;;22.77;13.13;;;8.90;94.40;;;;;;6198214;22;20142;-77
2022/01/04 02:08:58;;;;;;;22.00;12.38;;;8.90;94.40;;;;;;6224428;22;20307;-77
2022/01/04 02:11:25;;;;;;;26.88;12.88;;;8.90;94.40;;;;;;6223285;22;20439;-78
2022/01/04 02:13:51;;;;;;;23.77;13.05;;;8.90;94.40;;;;;;6199373;22;20016;-77
2022/01/04 02:16:19;;;;;;;23.17;13.65;;;8.90;94.40;;;;;;6198652;22;20481;-77
2022/01/04 02:18:45;;;;;;;23.83;13.23;;;8.90;94.40;;;;;;6198858;22;20077;-78
2022/01/04 02:21:11;;;;;;;25.40;12.88;;;8.90;94.40;;;;;;6199531;22;20020;-77
2022/01/04 02:23:36;;;;;;;25.50;13.13;;;8.90;94.40;;;;;;6200242;22;20108;-77
2022/01/04 02:26:02;;;;;;;27.33;13.70;;;8.90;94.40;;;;;;6200654;22;20027;-77
2022/01/04 02:28:29;;;;;;;21.50;12.70;;;8.80;94.40;;;;;;6200079;22;20015;-77
2022/01/04 02:30:55;;;;;;;30.23;13.38;;;8.80;94.40;;;;;;6175949;22;20380;-77
2022/01/04 02:33:20;;;;;;;23.50;14.05;;;8.80;94.40;;;;;;6225623;22;20108;-78
2022/01/04 02:35:46;;;;;;;27.67;13.77;;;8.80;94.50;;;;;;6199913;22;20027;-77
2022/01/04 02:38:12;;;;;;;25.25;13.60;;;8.80;94.50;;;;;;6200139;22;20023;-77
2022/01/04 02:40:38;;;;;;;28.20;13.55;;;8.80;94.40;;;;;;6199731;22;20022;-77
2022/01/04 02:43:03;;;;;;;27.95;13.82;;;8.80;94.50;;;;;;6200412;22;20077;-77
2022/01/04 02:45:29;;;;;;;29.52;12.88;;;8.90;94.50;;;;;;6224613;22;20038;-77
2022/01/04 02:47:57;;;;;;;24.45;13.32;;;8.90;94.50;;;;;;6199226;22;20150;-77
2022/01/04 02:50:23;;;;;;;26.00;13.10;;;8.90;94.50;;;;;;6225795;22;20018;-77
2022/01/04 02:52:51;;;;;;;27.70;13.27;;;8.90;94.50;;;;;;6199875;22;20102;-77
2022/01/04 02:55:17;;;;;;;26.33;13.57;;;8.90;94.50;;;;;;6225686;22;20015;-77
2022/01/04 02:57:42;;;;;;;25.85;13.60;;;8.90;94.50;;;;;;6224667;22;20107;-77
2022/01/04 03:00:10;;;;;;;28.10;14.20;;;8.90;94.50;;;;;;6225567;22;20019;-76
2022/01/04 03:02:36;;;;;;;27.60;14.27;;;8.90;94.50;;;;;;6174981;22;20019;-77
2022/01/04 03:05:02;;;;;;;27.85;13.52;;;8.90;94.50;;;;;;6174660;22;20106;-77
2022/01/04 03:07:28;;;;;;;22.63;14.45;;;8.90;94.50;;;;;;6174880;22;20023;-80
2022/01/04 03:09:53;;;;;;;26.63;14.48;;;8.90;94.50;;;;;;6224876;22;20069;-78
2022/01/04 03:12:20;;;;;;;27.25;14.07;;;8.90;94.50;;;;;;6200114;22;20099;-77
2022/01/04 03:14:45;;;;;;;24.10;14.18;;;8.90;94.60;;;;;;6174629;22;20050;-78
2022/01/04 03:17:11;;;;;;;23.25;14.48;;;8.90;94.60;;;;;;6200435;22;20311;-78
2022/01/04 03:19:37;;;;;;;22.70;13.10;;;8.90;94.50;;;;;;6174840;22;20098;-77
2022/01/04 03:22:03;;;;;;;26.52;13.60;;;8.90;94.60;;;;;;6225459;22;20391;-77
2022/01/04 03:24:31;;;;;;;24.77;14.40;;;8.90;94.60;;;;;;6225249;22;20376;-77
2022/01/04 03:26:57;;;;;;;25.08;14.80;;;8.90;94.60;;;;;;6201109;22;20457;-77
2022/01/04 03:29:23;;;;;;;24.58;13.70;;;8.90;94.60;;;;;;6199959;22;20068;-78
2022/01/04 03:31:52;;;;;;;28.58;15.88;;;8.90;94.60;;;;;;6249697;22;20054;-77
2022/01/04 03:34:18;;;;;;;27.35;14.40;;;8.90;94.60;;;;;;6175347;22;20044;-77
2022/01/04 03:36:43;;;;;;;28.85;16.08;;;9.00;94.60;;;;;;6199604;22;20433;-77
2022/01/04 03:39:10;;;;;;;27.58;14.90;;;9.00;94.60;;;;;;6200051;22;20034;-77
2022/01/04 03:41:38;;;;;;;28.75;16.33;;;8.90;94.60;;;;;;6199505;22;20012;-78
2022/01/04 03:44:05;;;;;;;31.35;16.48;;;8.90;94.60;;;;;;6200475;22;20027;-77
2022/01/04 03:46:31;;;;;;;29.92;15.90;;;8.90;94.60;;;;;;6175214;22;20334;-77
2022/01/04 03:48:56;;;;;;;29.45;16.58;;;8.90;94.60;;;;;;6199634;22;20018;-77
2022/01/04 03:51:22;;;;;;;29.65;16.77;;;9.00;94.60;;;;;;6199591;22;20022;-77
2022/01/04 03:53:50;;;;;;;31.20;16.42;;;9.00;94.60;;;;;;6199146;22;20472;-78
2022/01/04 03:56:18;;;;;;;27.13;16.42;;;9.00;94.60;;;;;;6199919;22;20099;-78
2022/01/04 03:58:44;;;;;;;29.10;16.63;;;9.00;94.60;;;;;;6199165;22;20058;-78
2022/01/04 04:01:09;;;;;;;29.35;16.50;;;9.00;94.60;;;;;;6200482;22;20020;-77
2022/01/04 04:03:35;;;;;;;26.80;15.30;;;9.00;94.60;;;;;;6199535;22;20019;-78
2022/01/04 04:06:01;;;;;;;33.70;16.85;;;8.90;94.60;;;;;;6224428;22;20377;-77
2022/01/04 04:08:29;;;;;;;28.83;16.83;;;8.90;94.60;;;;;;6199739;22;20098;-77
2022/01/04 04:10:54;;;;;;;26.25;14.98;;;8.90;94.60;;;;;;6174943;22;20388;-78
2022/01/04 04:13:20;;;;;;;24.52;16.80;;;9.00;94.60;;;;;;6199445;22;20016;-78
2022/01/04 04:15:46;;;;;;;24.45;15.98;;;8.90;94.60;;;;;;6198670;22;20015;-78
2022/01/04 04:18:16;;;;;;;24.52;16.08;;;8.90;94.60;;;;;;6199659;22;20334;-77
2022/01/04 04:20:42;;;;;;;28.67;17.38;;;8.90;94.60;;;;;;6224377;22;20022;-79
2022/01/04 04:23:08;;;;;;;26.92;17.30;;;8.90;94.60;;;;;;6224035;22;20051;-77
2022/01/04 04:25:33;;;;;;;31.00;19.20;;;9.00;94.60;;;;;;6199158;22;20073;-78
2022/01/04 04:27:59;;;;;;;34.60;18.27;;;9.00;94.60;;;;;;6198601;22;20026;-77
2022/01/04 04:30:25;;;;;;;28.27;17.05;;;9.00;94.60;;;;;;6199551;22;20154;-77
2022/01/04 04:32:51;;;;;;;26.50;17.42;;;9.00;94.60;;;;;;6173508;22;20019;-78
2022/01/04 04:35:17;;;;;;;26.85;16.42;;;9.00;94.60;;;;;;6224243;22;20020;-78
2022/01/04 04:37:42;;;;;;;29.75;17.65;;;8.90;94.60;;;;;;6198955;22;20346;-79
2022/01/04 04:40:09;;;;;;;28.95;16.85;;;9.00;94.60;;;;;;6199285;22;20015;-78
2022/01/04 04:42:35;;;;;;;26.98;16.52;;;9.00;94.60;;;;;;6224622;22;20023;-77
2022/01/04 04:45:01;;;;;;;24.50;16.33;;;9.00;94.60;;;;;;6223423;22;20015;-77
2022/01/04 04:47:26;;;;;;;24.75;15.55;;;9.00;94.60;;;;;;6174702;22;20023;-77
2022/01/04 04:49:55;;;;;;;25.45;15.77;;;9.00;94.60;;;;;;6198753;22;20434;-77
2022/01/04 04:52:21;;;;;;;25.88;16.20;;;9.00;94.60;;;;;;6200623;22;20342;-78
2022/01/04 04:54:47;;;;;;;22.13;14.57;;;9.00;94.60;;;;;;6199240;22;20019;-79
2022/01/04 04:57:13;;;;;;;26.15;15.10;;;9.00;94.60;;;;;;6198847;22;20051;-78
2022/01/04 04:59:38;;;;;;;24.52;15.27;;;9.00;94.60;;;;;;6199389;22;20024;-78
2022/01/04 05:02:07;;;;;;;28.15;16.60;;;9.00;94.60;;;;;;6198664;22;20038;-78
2022/01/04 05:04:33;;;;;;;24.30;15.27;;;9.00;94.60;;;;;;6200358;22;20020;-78
2022/01/04 05:06:59;;;;;;;27.30;15.95;;;9.00;94.60;;;;;;6198483;22;20090;-78
2022/01/04 05:09:24;;;;;;;26.50;15.88;;;9.00;94.60;;;;;;6199337;22;20016;-78
2022/01/04 05:11:50;;;;;;;27.52;15.93;;;9.00;94.70;;;;;;6198734;22;20016;-78
2022/01/04 05:14:16;;;;;;;27.17;15.57;;;9.00;94.70;;;;;;6199628;22;20434;-78
2022/01/04 05:16:44;;;;;;;25.83;16.15;;;9.00;94.70;;;;;;6199666;22;20098;-78
2022/01/04 05:19:10;;;;;;;27.73;16.00;;;9.00;94.70;;;;;;6199207;22;20063;-78
2022/01/04 05:21:36;;;;;;;24.65;16.20;;;9.00;94.70;;;;;;6199551;22;20430;-78
2022/01/04 05:24:01;;;;;;;27.10;16.85;;;9.00;94.70;;;;;;6174307;22;20019;-78
2022/01/04 05:26:27;;;;;;;28.80;16.80;;;9.00;94.70;;;;;;6199295;22;20020;-78
2022/01/04 05:28:53;;;;;;;31.63;18.38;;;9.00;94.70;;;;;;6199340;22;20015;-78
2022/01/04 05:31:18;;;;;;;30.27;17.17;;;9.00;94.80;;;;;;6198668;22;20066;-78
2022/01/04 05:33:44;;;;;;;29.25;16.95;;;9.00;94.80;;;;;;6174372;22;20030;-79
2022/01/04 05:36:10;;;;;;;32.50;18.15;;;9.00;94.80;;;;;;6173588;22;20453;-79
2022/01/04 05:38:35;;;;;;;29.83;18.48;;;9.00;94.80;;;;;;6199476;22;20054;-78
2022/01/04 05:41:01;;;;;;;30.10;18.10;;;9.00;94.80;;;;;;6198927;22;20019;-79
2022/01/04 05:43:27;;;;;;;33.60;19.15;;;8.90;94.80;;;;;;6199243;22;20034;-78
2022/01/04 05:45:52;;;;;;;32.35;18.88;;;9.00;94.80;;;;;;6199626;22;20015;-81
2022/01/04 05:48:20;;;;;;;31.85;20.35;;;8.90;94.80;;;;;;6200223;22;20434;-78
2022/01/04 05:50:46;;;;;;;28.15;18.55;;;9.00;94.80;;;;;;6210113;22;20019;-79
2022/01/04 05:53:12;;;;;;;29.10;18.70;;;9.00;94.80;;;;;;6209492;22;20043;-78
2022/01/04 05:55:38;;;;;;;30.05;19.17;;;9.00;94.90;;;;;;6183478;22;20019;-78
2022/01/04 05:58:04;;;;;;;32.13;20.25;;;9.00;94.90;;;;;;6178538;22;20067;-79
2022/01/04 06:00:29;;;;;;;30.88;18.95;;;9.00;94.90;;;;;;6224583;22;20442;-79
2022/01/04 06:02:58;;;;;;;34.17;19.38;;;9.00;94.90;;;;;;6174597;22;20294;-80
2022/01/04 06:05:27;;;;;;;28.23;17.95;;;9.00;94.90;;;;;;6178896;22;20019;-77
2022/01/04 06:07:52;;;;;;;31.67;19.52;;;8.90;94.80;;;;;;6209690;22;20046;-78
2022/01/04 06:10:18;;;;;;;32.95;18.25;;;9.00;94.90;;;;;;6205811;22;20441;-78
2022/01/04 06:15:11;;;;;;;34.67;18.90;;;8.90;94.80;;;;;;6197987;22;20454;-78
2022/01/04 06:17:39;;;;;;;30.77;18.83;;;8.90;94.80;;;;;;6198678;22;20022;-78
2022/01/04 06:20:08;;;;;;;26.60;18.45;;;8.90;94.80;;;;;;6172652;22;20094;-79
2022/01/04 06:22:34;;;;;;;32.65;19.77;;;8.90;94.80;;;;;;6174514;22;20016;-79
2022/01/04 06:25:01;;;;;;;27.88;19.00;;;8.90;94.80;;;;;;6172663;22;20096;-79
2022/01/04 06:27:27;;;;;;;35.17;20.00;;;8.90;94.90;;;;;;6197669;22;20072;-79
2022/01/04 06:29:52;;;;;;;32.03;19.63;;;8.90;94.90;;;;;;6198377;22;20063;-79
2022/01/04 06:32:18;;;;;;;29.73;19.48;;;8.90;94.90;;;;;;6198823;22;20073;-79
2022/01/04 06:34:44;;;;;;;29.80;19.15;;;8.90;94.90;;;;;;6199785;22;20020;-79
2022/01/04 06:37:11;;;;;;;28.60;18.70;;;8.90;95.20;;;;;;6203412;22;20015;-76
2022/01/04 06:39:37;;;;;;;34.35;21.25;;;8.90;94.90;;;;;;6185805;22;20039;-77
2022/01/04 06:42:05;;;;;;;28.42;19.67;;;8.90;94.90;;;;;;6208509;22;20019;-79
2022/01/04 06:44:33;;;;;;;30.92;20.73;;;8.90;94.90;;;;;;6180691;22;20016;-78
2022/01/04 06:46:59;;;;;;;35.25;21.55;;;8.90;94.90;;;;;;6173473;22;20012;-80
2022/01/04 06:49:25;;;;;;;31.15;19.90;;;8.90;94.90;;;;;;6197138;22;20095;-79
2022/01/04 06:51:50;;;;;;;34.25;20.88;;;8.90;94.90;;;;;;6198385;22;20090;-79
2022/01/04 06:54:17;;;;;;;32.47;21.13;;;8.90;94.90;;;;;;6172303;22;20027;-79
2022/01/04 06:56:43;;;;;;;33.17;20.35;;;8.90;94.90;;;;;;6175471;22;20023;-78
2022/01/04 06:59:08;;;;;;;35.28;21.35;;;8.90;94.90;;;;;;6199853;22;20019;-79
2022/01/04 07:01:34;;;;;;;36.13;20.45;;;8.90;94.90;;;;;;6174816;22;20012;-79
2022/01/04 07:04:00;;;;;;;32.67;20.30;;;8.90;95.00;;;;;;6174057;22;20051;-83
2022/01/04 07:06:26;;;;;;;32.15;21.05;;;8.90;94.90;;;;;;6199166;22;20027;-80
2022/01/04 07:08:52;;;;;;;40.28;21.15;;;8.90;94.90;;;;;;6203368;22;20330;-84
2022/01/04 07:11:20;;;;;;;31.90;21.23;;;8.90;94.90;;;;;;6206455;22;20051;-84
2022/01/04 07:13:49;;;;;;;33.67;21.83;;;8.90;94.90;;;;;;6183274;22;20026;-87
2022/01/04 07:16:18;;;;;;;33.67;21.23;;;8.90;94.90;;;;;;6207605;22;20026;-84
2022/01/04 07:18:48;;;;;;;35.38;21.15;;;8.90;94.90;;;;;;6207856;22;20027;-85
2022/01/04 07:21:15;;;;;;;38.00;21.92;;;8.90;94.90;;;;;;6207688;22;20026;-82
2022/01/04 07:23:42;;;;;;;34.05;21.73;;;8.90;94.90;;;;;;6205659;22;20092;-82
2022/01/04 07:26:14;;;;;;;35.30;20.88;;;8.90;94.90;;;;;;6205907;22;20020;-81
2022/01/04 07:28:49;;;;;;;37.17;22.35;;;8.90;94.90;;;;;;6205411;22;20012;-80
2022/01/04 07:31:18;;;;;;;32.13;21.20;;;8.90;94.90;;;;;;6203354;22;20069;-81
2022/01/04 07:33:49;;;;;;;33.78;21.17;;;8.90;94.90;;;;;;6203550;22;20020;-81
2022/01/04 07:36:15;;;;;;;30.77;21.00;;;8.90;94.90;;;;;;6230672;22;20045;-81
2022/01/04 07:38:41;;;;;;;38.05;21.60;;;8.90;94.90;;;;;;6180441;22;20067;-80
2022/01/04 07:41:07;;;;;;;34.17;21.45;;;8.90;94.90;;;;;;6207302;22;20408;-80
2022/01/04 07:43:33;;;;;;;38.53;22.60;;;8.90;94.90;;;;;;6232145;22;20053;-81
2022/01/04 07:45:58;;;;;;;33.92;23.20;;;8.90;94.90;;;;;;6181812;22;20020;-80
2022/01/04 07:48:24;;;;;;;37.38;22.70;;;8.90;95.20;;;;;;6181307;22;20303;-80
2022/01/04 07:50:53;;;;;;;34.88;20.92;;;8.90;94.90;;;;;;6232149;22;20015;-81
2022/01/04 07:53:22;;;;;;;32.55;21.08;;;8.90;94.90;;;;;;6182825;22;20020;-81
2022/01/04 07:55:48;;;;;;;31.77;21.42;;;8.90;94.90;;;;;;6256045;22;20382;-82
2022/01/04 07:58:14;;;;;;;32.00;22.23;;;8.90;94.90;;;;;;6232308;22;20024;-81
2022/01/04 08:00:40;;;;;;;32.40;21.40;;;8.90;94.90;;;;;;6207373;22;20067;-82
2022/01/04 08:03:11;;;;;;;36.17;21.08;;;8.90;94.90;;;;;;6233031;22;20020;-83
2022/01/04 08:05:37;;;;;;;36.45;21.67;;;8.90;94.90;;;;;;6257109;22;20054;-81
2022/01/04 08:08:03;;;;;;;32.97;21.13;;;8.90;94.90;;;;;;6181570;22;20015;-81
2022/01/04 08:10:29;;;;;;;29.88;20.95;;;8.90;94.90;;;;;;6182500;22;20019;-82
2022/01/04 08:12:54;;;;;;;30.85;19.95;;;8.90;94.80;;;;;;6183359;22;20015;-82
2022/01/04 08:15:20;;;;;;;30.02;19.35;;;8.90;94.80;;;;;;6232242;22;20020;-81
2022/01/04 08:17:51;;;;;;;32.80;20.77;;;8.90;94.80;;;;;;6209423;22;20024;-82
2022/01/04 08:20:18;;;;;;;29.40;19.38;;;8.90;94.80;;;;;;6207720;22;20020;-79
2022/01/04 08:22:47;;;;;;;29.92;20.15;;;8.90;94.80;;;;;;6208737;22;20481;-82
2022/01/04 08:25:15;;;;;;;30.00;19.02;;;8.90;94.80;;;;;;6182307;22;20049;-81
2022/01/04 08:27:41;;;;;;;31.38;18.67;;;8.90;94.80;;;;;;6207258;22;20051;-81
2022/01/04 08:30:09;;;;;;;28.73;19.33;;;8.90;94.80;;;;;;6256318;22;20465;-81
2022/01/04 08:32:38;;;;;;;29.70;19.17;;;8.90;94.80;;;;;;6182319;22;20066;-81
2022/01/04 08:35:14;;;;;;;28.70;18.50;;;8.90;94.70;;;;;;6207737;22;20020;-82
2022/01/04 08:37:42;;;;;;;27.35;19.02;;;8.90;94.70;;;;;;6208527;22;20012;-81
2022/01/04 08:40:08;;;;;;;29.85;18.73;;;8.90;94.70;;;;;;6232897;22;20070;-81
2022/01/04 08:42:35;;;;;;;29.30;20.42;;;8.90;94.70;;;;;;6202273;22;20074;-79
2022/01/04 08:45:10;;;;;;;28.90;18.08;;;8.90;94.70;;;;;;6202710;22;20433;-84
2022/01/04 08:47:38;;;;;;;33.33;19.17;;;9.00;94.70;;;;;;6182126;22;20015;-87
2022/01/04 08:50:11;;;;;;;31.90;19.83;;;9.00;94.70;;;;;;6208103;22;20047;-85
2022/01/04 08:52:49;;;;;;;30.83;19.02;;;9.00;94.70;;;;;;6178343;22;20089;-87
2022/01/04 08:55:17;;;;;;;31.50;20.63;;;9.00;94.60;;;;;;6189249;22;20452;-83
2022/01/04 08:57:43;;;;;;;36.53;21.60;;;9.00;94.70;;;;;;6210531;22;20023;-85
2022/01/04 09:00:10;;;;;;;28.60;19.10;;;9.00;94.60;;;;;;6184493;22;20027;-85
2022/01/04 09:02:38;;;;;;;30.88;20.15;;;9.00;94.60;;;;;;6183919;22;20019;-86
2022/01/04 09:05:11;;;;;;;32.38;20.08;;;9.00;94.70;;;;;;6184649;22;20020;-87
2022/01/04 09:07:38;;;;;;;35.83;20.70;;;9.00;94.70;;;;;;6184342;22;20094;-89
2022/01/04 09:10:12;;;;;;;32.65;20.10;;;9.00;94.60;;;;;;6177788;22;20556;-91
2022/01/04 09:13:05;;;;;;;32.88;21.92;;;9.00;95.00;;;;;;6181694;22;20095;-84
2022/01/04 09:15:55;;;;;;;31.83;22.52;;;9.10;94.70;;;;;;6215255;22;20016;-85
2022/01/04 09:21:13;;;;;;;33.28;22.25;;;9.00;94.60;;;;;;6215751;22;20023;-85
2022/01/04 09:24:05;;;;;;;31.20;21.67;;;9.00;94.70;;;;;;6207705;22;20058;-85
2022/01/04 09:26:31;;;;;;;37.78;21.63;;;9.00;94.80;;;;;;6231679;22;20024;-82
2022/01/04 09:28:57;;;;;;;32.38;20.42;;;9.00;94.80;;;;;;6206198;22;20020;-86
2022/01/04 09:31:27;;;;;;;33.53;22.55;;;9.00;94.80;;;;;;6205484;22;20073;-81
2022/01/04 09:33:55;;;;;;;28.27;17.48;;;9.00;94.80;;;;;;6203276;22;20012;-78
2022/01/04 09:36:23;;;;;;;22.52;13.70;;;9.00;94.80;;;;;;6176869;22;20015;-79
2022/01/04 09:38:57;;;;;;;20.40;12.95;;;8.90;94.80;;;;;;6201939;22;20023;-79
2022/01/04 09:41:34;;;;;;;18.95;10.38;;;8.90;94.80;;;;;;6180164;22;20041;-81
2022/01/04 09:44:03;;;;;;;10.95;7.05;;;8.90;94.80;;;;;;6206334;22;20023;-81
2022/01/04 09:46:29;;;;;;;11.05;6.45;;;8.80;94.70;;;;;;6179059;22;20051;-80
2022/01/04 09:48:57;;;;;;;12.75;6.22;;;8.80;94.70;;;;;;6224049;22;20011;-77
2022/01/04 09:51:23;;;;;;;10.30;5.00;;;8.80;94.60;;;;;;6231249;22;20015;-82
2022/01/04 09:53:52;;;;;;;10.70;5.53;;;8.80;94.60;;;;;;6175586;22;20456;-76
2022/01/04 09:56:23;;;;;;;9.15;5.40;;;8.80;94.60;;;;;;6175695;22;20341;-82
2022/01/04 09:58:48;;;;;;;11.25;5.72;;;8.80;94.60;;;;;;6181041;22;20011;-77
2022/01/04 10:01:22;;;;;;;11.15;5.30;;;8.80;94.60;;;;;;6174982;22;20051;-79
2022/01/04 10:03:50;;;;;;;9.73;4.40;;;8.80;94.60;;;;;;6176230;22;20350;-78
2022/01/04 10:06:16;;;;;;;8.45;4.15;;;8.80;94.60;;;;;;6200712;22;20016;-80
2022/01/04 10:09:11;;;;;;;9.75;3.67;;;8.80;94.50;;;;;;6224152;22;20046;-79
2022/01/04 10:11:47;;;;;;;6.07;3.70;;;8.80;94.50;;;;;;6195436;22;20020;-75
2022/01/04 10:14:35;;;;;;;8.00;3.67;;;8.80;94.50;;;;;;6178498;22;20020;-82
2022/01/04 10:17:22;;;;;;;9.10;3.38;;;8.80;94.50;;;;;;6203907;22;20016;-77
2022/01/04 10:19:49;;;;;;;7.65;3.33;;;8.90;94.40;;;;;;6198726;22;20037;-79
2022/01/04 10:22:27;;;;;;;7.72;3.17;;;8.90;94.40;;;;;;6200898;22;20117;-76
2022/01/04 10:25:10;;;;;;;9.82;3.22;;;8.90;94.40;;;;;;6228672;22;20035;-84
2022/01/04 10:27:43;;;;;;;7.97;3.67;;;8.90;94.40;;;;;;6181671;22;20016;-83
2022/01/04 10:30:16;;;;;;;8.60;4.97;;;9.00;94.40;;;;;;6207374;22;20018;-84
2022/01/04 10:33:01;;;;;;;19.50;10.68;;;9.00;94.40;;;;;;6260312;22;20015;-86
2022/01/04 10:35:30;;;;;;;20.80;9.43;;;9.00;94.40;;;;;;6258136;22;20024;-80
2022/01/04 10:37:58;;;;;;;14.70;7.60;;;9.00;94.40;;;;;;6256108;22;20054;-83
2022/01/04 10:40:25;;;;;;;15.38;5.82;;;9.00;94.40;;;;;;6180743;22;20042;-82
2022/01/04 10:42:51;;;;;;;11.00;4.80;;;9.00;94.40;;;;;;6206073;22;20020;-83
2022/01/04 10:45:21;;;;;;;8.65;3.70;;;9.00;94.40;;;;;;6184241;22;20034;-81
2022/01/04 10:47:47;;;;;;;6.70;2.92;;;9.00;94.40;;;;;;6233774;22;20024;-83
2022/01/04 10:50:14;;;;;;;8.90;3.42;;;9.00;94.40;;;;;;6183973;22;20077;-83
2022/01/04 10:52:41;;;;;;;8.63;2.10;;;9.00;94.40;;;;;;6182926;22;20016;-82
2022/01/04 10:55:14;;;;;;;6.90;3.08;;;9.00;94.40;;;;;;6233039;22;20047;-80
2022/01/04 10:57:40;;;;;;;8.43;2.65;;;9.00;94.40;;;;;;6204211;22;20022;-83
2022/01/04 11:00:13;;;;;;;6.65;2.28;;;9.00;94.40;;;;;;6201711;22;20357;-79
2022/01/04 11:02:39;;;;;;;7.00;2.30;;;9.00;94.40;;;;;;6203640;22;20098;-79
2022/01/04 11:05:15;;;;;;;8.15;2.30;;;9.00;94.40;;;;;;6206954;22;20015;-80
2022/01/04 11:08:01;;;;;;;8.43;3.30;;;9.00;94.40;;;;;;6177590;22;20434;-80
2022/01/04 11:10:28;;;;;;;7.18;2.90;;;9.00;94.40;;;;;;6203599;22;20020;-77
2022/01/04 11:12:58;;;;;;;9.30;3.63;;;9.10;94.30;;;;;;6177006;22;20016;-83
2022/01/04 11:15:26;;;;;;;6.55;2.97;;;9.10;94.30;;;;;;6205546;22;20385;-79
2022/01/04 11:17:52;;;;;;;8.00;2.53;;;9.20;94.20;;;;;;6201191;22;20020;-78
2022/01/04 11:20:18;;;;;;;7.07;2.55;;;9.20;94.10;;;;;;6201536;22;20020;-79
2022/01/04 11:22:45;;;;;;;7.88;2.40;;;9.20;94.10;;;;;;6174551;22;20065;-81
2022/01/04 11:25:10;;;;;;;8.75;2.72;;;9.20;94.00;;;;;;6175249;22;20019;-80
2022/01/04 11:27:39;;;;;;;7.18;2.90;;;9.20;94.00;;;;;;6175033;22;20443;-77
2022/01/04 11:30:10;;;;;;;6.72;2.58;;;9.20;94.00;;;;;;6174018;22;20011;-79
2022/01/04 11:32:39;;;;;;;7.22;2.10;;;9.20;94.00;;;;;;6204935;22;20026;-76
2022/01/04 11:35:18;;;;;;;6.53;2.17;;;9.10;93.90;;;;;;6224580;22;20015;-76
2022/01/04 11:37:55;;;;;;;8.15;2.10;;;9.20;93.90;;;;;;6226989;22;20019;-75
2022/01/04 11:40:36;;;;;;;6.15;2.10;;;9.10;93.90;;;;;;6203164;22;20023;-82
2022/01/04 11:43:06;;;;;;;5.30;2.08;;;9.10;93.90;;;;;;6207921;22;20016;-83
2022/01/04 11:45:47;;;;;;;7.65;2.08;;;9.10;94.20;;;;;;6182415;22;20019;-81
2022/01/04 11:48:28;;;;;;;8.50;2.50;;;9.10;93.80;;;;;;6184171;22;20019;-84
2022/01/04 11:50:54;;;;;;;6.57;2.17;;;9.00;93.70;;;;;;6233007;22;20103;-81
2022/01/04 11:53:22;;;;;;;6.80;2.08;;;9.00;93.70;;;;;;6208130;22;20067;-83
2022/01/04 11:56:00;;;;;;;5.05;1.80;;;9.00;93.80;;;;;;6207480;22;20023;-82
2022/01/04 11:58:40;;;;;;;6.32;2.10;;;8.90;93.60;;;;;;6207057;22;20026;-81
2022/01/04 12:01:06;;;;;;;5.10;2.20;;;8.90;93.70;;;;;;6184784;22;20098;-82
2022/01/04 12:03:36;;;;;;;4.88;2.30;;;8.90;93.70;;;;;;6257246;22;20019;-83
2022/01/04 12:06:02;;;;;;;7.05;1.83;;;8.80;93.60;;;;;;6206777;22;20019;-81
2022/01/04 12:08:35;;;;;;;6.10;1.48;;;8.80;93.60;;;;;;6231014;22;20336;-80
2022/01/04 12:11:01;;;;;;;2.67;0.95;;;8.80;93.50;;;;;;6209552;22;20114;-79
2022/01/04 12:13:46;;;;;;;3.20;0.90;;;8.70;93.50;;;;;;6208957;22;20481;-84
2022/01/04 12:16:12;;;;;;;1.40;0.68;;;8.70;93.40;;;;;;6243656;22;20011;-83
2022/01/04 12:18:38;;;;;;;3.40;0.85;;;8.70;93.40;;;;;;6243629;22;20042;-87
2022/01/04 12:21:14;;;;;;;2.72;0.80;;;8.60;93.40;;;;;;6239800;22;20071;-84
2022/01/04 12:23:40;;;;;;;3.83;0.60;;;8.60;93.30;;;;;;6213873;22;20405;-85
2022/01/04 12:26:06;;;;;;;4.65;0.88;;;8.60;93.30;;;;;;6237140;22;20019;-85
2022/01/04 12:28:58;;;;;;;4.85;0.82;;;8.60;93.30;;;;;;6237503;22;20077;-79
2022/01/04 12:31:30;;;;;;;3.90;0.90;;;8.60;93.30;;;;;;6240982;22;20047;-79
2022/01/04 12:33:57;;;;;;;3.42;0.85;;;8.50;93.30;;;;;;6210715;22;20027;-79
2022/01/04 12:36:27;;;;;;;2.55;0.63;;;8.40;93.20;;;;;;6203808;22;20047;-78
2022/01/04 12:38:53;;;;;;;3.83;0.95;;;8.40;93.10;;;;;;6250037;22;20016;-77
2022/01/04 12:41:19;;;;;;;2.85;0.60;;;8.40;93.20;;;;;;6200321;22;20011;-81
2022/01/04 12:43:47;;;;;;;3.60;0.70;;;8.30;93.10;;;;;;6208078;22;20020;-79
2022/01/04 12:46:21;;;;;;;4.75;0.73;;;8.30;93.10;;;;;;6205946;22;20027;-84
2022/01/04 12:48:51;;;;;;;3.33;0.50;;;8.30;93.00;;;;;;6184451;22;20388;-82
2022/01/04 12:51:33;;;;;;;3.70;0.60;;;8.20;92.90;;;;;;6183441;22;20468;-83
2022/01/04 12:54:04;;;;;;;2.05;0.75;;;8.30;92.90;;;;;;6233751;22;20012;-82
2022/01/04 12:56:30;;;;;;;4.53;0.77;;;8.20;92.80;;;;;;6233260;22;20054;-80
2022/01/04 12:58:56;;;;;;;2.42;0.50;;;8.30;92.80;;;;;;6207220;22;20098;-79